Time;durP1;ratioP1;P1;durP2;ratioP2;P2;SDS_P1;SDS_P2;PMS_P1;PMS_P2;Temp;Humidity;BMP_temperature;BMP_pressure;BME280_temperature;BME280_humidity;BME280_pressure;Samples;Min_cycle;Max_cycle;Signal;HPM_P1;HPM_P2
2021/12/10 00:00:32;;;;;;;1.58;0.90;;;17.40;49.20;;;;;;5121342;27;45597;-77
2021/12/10 00:03:00;;;;;;;2.83;0.73;;;17.30;49.00;;;;;;5126886;27;45654;-77
2021/12/10 00:05:31;;;;;;;1.38;0.90;;;17.30;48.90;;;;;;5130164;27;45464;-77
2021/12/10 00:07:59;;;;;;;1.52;1.02;;;17.30;48.60;;;;;;5129883;27;47926;-78
2021/12/10 00:10:35;;;;;;;1.48;0.70;;;17.30;48.80;;;;;;5131550;27;45197;-77
2021/12/10 00:13:03;;;;;;;1.33;0.77;;;17.30;48.70;;;;;;5130264;27;45336;-77
2021/12/10 00:15:32;;;;;;;0.82;0.70;;;17.30;48.70;;;;;;5130434;27;45345;-77
2021/12/10 00:18:02;;;;;;;1.98;1.00;;;17.30;48.50;;;;;;5130816;27;48280;-77
2021/12/10 00:20:31;;;;;;;1.30;0.88;;;17.40;48.70;;;;;;5123150;27;45657;-77
2021/12/10 00:23:03;;;;;;;0.88;0.80;;;17.40;48.60;;;;;;5119478;27;45371;-77
2021/12/10 00:25:36;;;;;;;1.05;0.68;;;17.40;48.40;;;;;;5110778;27;45181;-77
2021/12/10 00:28:14;;;;;;;0.65;0.65;;;17.40;48.50;;;;;;5119870;27;47131;-77
2021/12/10 00:30:59;;;;;;;1.08;0.80;;;17.40;48.30;;;;;;5130355;27;45302;-77
2021/12/10 00:33:26;;;;;;;1.20;0.80;;;17.40;48.00;;;;;;5125071;27;45529;-77
2021/12/10 00:35:54;;;;;;;1.35;0.90;;;17.40;47.80;;;;;;5129679;27;45522;-77
2021/12/10 00:38:22;;;;;;;1.25;0.80;;;17.40;48.10;;;;;;5129364;27;46440;-77
2021/12/10 00:40:50;;;;;;;0.90;0.75;;;17.40;47.80;;;;;;5129363;27;45887;-77
2021/12/10 00:43:17;;;;;;;1.55;1.05;;;17.40;47.90;;;;;;5131100;27;45294;-77
2021/12/10 00:45:46;;;;;;;1.63;0.90;;;17.40;47.80;;;;;;5130949;27;45425;-77
2021/12/10 00:48:13;;;;;;;1.20;0.60;;;17.40;47.90;;;;;;5128935;27;46222;-77
2021/12/10 00:50:43;;;;;;;1.67;1.02;;;17.40;48.80;;;;;;5130910;27;45155;-77
2021/12/10 00:53:10;;;;;;;1.70;0.73;;;17.40;47.70;;;;;;5129637;27;45505;-77
2021/12/10 00:55:37;;;;;;;1.83;0.98;;;17.40;47.50;;;;;;5130586;27;45276;-77
2021/12/10 00:58:05;;;;;;;0.88;0.68;;;17.30;47.60;;;;;;5130786;27;46180;-77
2021/12/10 01:00:36;;;;;;;1.30;0.90;;;17.30;48.60;;;;;;5128535;27;45995;-77
2021/12/10 01:03:07;;;;;;;1.75;0.70;;;17.30;47.60;;;;;;5129019;27;45238;-77
2021/12/10 01:05:35;;;;;;;1.30;0.80;;;17.40;47.40;;;;;;5109274;27;45304;-77
2021/12/10 01:08:02;;;;;;;1.30;0.60;;;17.40;47.40;;;;;;5127695;27;46260;-77
2021/12/10 01:10:33;;;;;;;1.88;0.93;;;17.40;47.40;;;;;;5129901;27;45307;-77
2021/12/10 01:13:05;;;;;;;1.65;1.00;;;17.40;47.30;;;;;;5127143;27;45424;-77
2021/12/10 01:15:49;;;;;;;1.33;0.77;;;17.40;47.00;;;;;;5127667;27;45289;-77
2021/12/10 01:23:55;;;;;;;1.55;0.88;;;17.40;46.40;;;;;;5119681;27;45218;-76
2021/12/10 01:26:40;;;;;;;1.92;0.75;;;17.40;46.60;;;;;;5127863;27;45243;-76
2021/12/10 01:29:09;;;;;;;0.88;0.50;;;17.40;46.80;;;;;;5122629;27;46431;-76
2021/12/10 01:31:37;;;;;;;1.52;0.70;;;17.40;46.60;;;;;;5118676;27;45357;-77
2021/12/10 01:34:07;;;;;;;1.58;0.70;;;17.40;46.50;;;;;;5130434;27;45208;-77
2021/12/10 01:36:34;;;;;;;1.42;0.80;;;17.40;46.30;;;;;;5124320;27;45246;-77
2021/12/10 01:39:01;;;;;;;1.50;0.70;;;17.30;46.20;;;;;;5123928;27;47429;-77
2021/12/10 01:41:34;;;;;;;1.33;0.80;;;17.40;46.40;;;;;;5127051;27;45268;-77
2021/12/10 01:44:11;;;;;;;1.67;0.80;;;17.40;46.20;;;;;;5129404;27;45437;-77
2021/12/10 01:46:40;;;;;;;1.08;0.60;;;17.40;46.50;;;;;;5125325;27;45237;-77
2021/12/10 01:49:09;;;;;;;1.65;0.98;;;17.40;46.20;;;;;;5128396;27;45365;-77
2021/12/10 01:51:39;;;;;;;2.53;1.02;;;17.40;46.30;;;;;;5117841;27;45382;-77
2021/12/10 01:54:13;;;;;;;1.35;0.80;;;17.40;46.20;;;;;;5120638;27;45286;-77
2021/12/10 01:56:41;;;;;;;1.92;1.10;;;17.40;46.20;;;;;;5118604;27;45451;-77
2021/12/10 01:59:11;;;;;;;1.40;0.70;;;17.40;46.00;;;;;;5127963;27;47497;-77
2021/12/10 02:01:41;;;;;;;1.77;1.10;;;17.40;46.10;;;;;;5122605;27;45912;-77
2021/12/10 02:04:13;;;;;;;1.73;0.88;;;17.40;46.30;;;;;;5129621;27;45245;-77
2021/12/10 02:06:41;;;;;;;1.70;0.90;;;17.40;46.30;;;;;;5126096;27;45251;-77
2021/12/10 02:09:09;;;;;;;1.38;0.77;;;17.40;46.30;;;;;;5128478;27;47821;-77
2021/12/10 02:11:36;;;;;;;0.88;0.63;;;17.40;46.20;;;;;;5125310;27;45503;-77
2021/12/10 02:14:04;;;;;;;1.02;0.65;;;17.40;45.90;;;;;;5125682;27;45496;-77
2021/12/10 02:16:31;;;;;;;1.55;0.80;;;17.40;46.10;;;;;;5129012;27;45433;-77
2021/12/10 02:18:58;;;;;;;1.35;0.68;;;17.40;45.90;;;;;;5127206;27;48373;-77
2021/12/10 02:21:28;;;;;;;1.50;0.77;;;17.40;45.90;;;;;;5129369;27;45289;-77
2021/12/10 02:23:58;;;;;;;1.52;0.65;;;17.40;46.00;;;;;;5127323;27;45779;-77
2021/12/10 02:26:33;;;;;;;1.55;0.70;;;17.30;45.60;;;;;;5128397;27;45322;-78
2021/12/10 02:29:01;;;;;;;1.10;0.70;;;17.30;45.60;;;;;;5127694;27;48113;-77
2021/12/10 02:31:29;;;;;;;1.50;0.70;;;17.30;45.50;;;;;;5117747;27;45242;-77
2021/12/10 02:33:56;;;;;;;2.72;0.90;;;17.30;46.20;;;;;;5128579;27;45362;-77
2021/12/10 02:36:23;;;;;;;1.55;0.73;;;17.30;45.50;;;;;;5128875;27;45245;-77
2021/12/10 02:38:53;;;;;;;1.83;0.68;;;17.30;45.50;;;;;;5127182;27;48460;-77
2021/12/10 02:41:24;;;;;;;1.48;0.77;;;17.30;45.70;;;;;;5126953;27;45337;-76
2021/12/10 02:43:52;;;;;;;1.65;0.95;;;17.30;45.60;;;;;;5129007;27;45405;-76
2021/12/10 02:46:19;;;;;;;3.28;0.70;;;17.40;45.90;;;;;;5132916;27;45437;-76
2021/12/10 02:48:46;;;;;;;1.60;0.80;;;17.40;45.50;;;;;;5131744;27;45592;-76
2021/12/10 02:51:14;;;;;;;1.27;0.80;;;17.40;45.40;;;;;;5130847;27;45347;-76
2021/12/10 02:53:44;;;;;;;1.48;0.85;;;17.40;45.40;;;;;;5132492;27;45331;-76
2021/12/10 02:56:16;;;;;;;2.00;0.70;;;17.40;45.70;;;;;;5130409;27;45407;-76
2021/12/10 02:58:44;;;;;;;1.60;0.80;;;17.40;45.60;;;;;;5132083;27;47112;-76
2021/12/10 03:01:18;;;;;;;2.38;0.80;;;17.40;45.50;;;;;;5132734;27;45306;-77
2021/12/10 03:03:45;;;;;;;2.80;1.00;;;17.40;45.50;;;;;;5129807;27;45488;-77
2021/12/10 03:06:14;;;;;;;1.42;0.80;;;17.40;45.30;;;;;;5131985;27;45226;-77
2021/12/10 03:08:45;;;;;;;2.10;0.88;;;17.30;45.20;;;;;;5130303;27;47588;-77
2021/12/10 03:11:17;;;;;;;1.50;0.73;;;17.30;45.20;;;;;;5127955;27;45368;-77
2021/12/10 03:13:44;;;;;;;1.98;0.82;;;17.30;45.30;;;;;;5130076;27;45291;-77
2021/12/10 03:16:11;;;;;;;2.85;0.73;;;17.30;45.10;;;;;;5111244;27;45203;-77
2021/12/10 03:18:39;;;;;;;3.85;0.85;;;17.30;45.20;;;;;;5125624;27;46028;-77
2021/12/10 03:21:09;;;;;;;1.85;0.52;;;17.30;45.10;;;;;;5131221;27;45243;-77
2021/12/10 03:23:36;;;;;;;1.13;0.60;;;17.30;44.80;;;;;;5131251;27;45540;-77
2021/12/10 03:26:04;;;;;;;1.95;0.77;;;17.30;45.50;;;;;;5131524;27;45321;-76
2021/12/10 03:28:32;;;;;;;1.60;0.73;;;17.30;45.90;;;;;;5130318;27;47375;-76
2021/12/10 03:30:59;;;;;;;1.00;0.65;;;17.30;45.70;;;;;;5131295;27;45934;-77
2021/12/10 03:33:26;;;;;;;1.27;0.60;;;17.30;45.50;;;;;;5131905;27;45323;-77
2021/12/10 03:35:53;;;;;;;0.95;0.65;;;17.30;45.50;;;;;;5130794;27;45498;-77
2021/12/10 03:38:24;;;;;;;0.98;0.60;;;17.40;45.30;;;;;;5129470;27;46192;-77
2021/12/10 03:40:52;;;;;;;0.95;0.68;;;17.40;45.40;;;;;;5131831;27;45182;-77
2021/12/10 03:43:20;;;;;;;0.90;0.38;;;17.40;45.10;;;;;;5129708;27;45231;-77
2021/12/10 03:45:51;;;;;;;2.08;0.60;;;17.40;45.40;;;;;;5125967;27;45580;-77
2021/12/10 03:48:20;;;;;;;1.88;0.60;;;17.40;45.10;;;;;;5127409;27;47422;-77
2021/12/10 03:50:49;;;;;;;1.75;0.60;;;17.40;44.90;;;;;;5127484;27;45353;-77
2021/12/10 03:53:17;;;;;;;1.45;0.77;;;17.40;45.10;;;;;;5127462;27;45192;-77
2021/12/10 03:55:44;;;;;;;0.98;0.50;;;17.40;45.10;;;;;;5129244;27;45262;-77
2021/12/10 03:58:11;;;;;;;1.30;0.70;;;17.30;45.00;;;;;;5131138;27;47642;-77
2021/12/10 04:00:43;;;;;;;1.42;0.70;;;17.30;44.90;;;;;;5131255;27;45567;-77
2021/12/10 04:03:11;;;;;;;1.25;0.70;;;17.30;44.80;;;;;;5130013;27;45456;-77
2021/12/10 04:05:39;;;;;;;2.50;0.90;;;17.30;45.10;;;;;;5126632;27;45442;-77
2021/12/10 04:08:06;;;;;;;1.45;0.73;;;17.30;44.90;;;;;;5128870;27;45399;-77
2021/12/10 04:10:34;;;;;;;1.52;0.75;;;17.30;44.50;;;;;;5120330;27;47455;-77
2021/12/10 04:13:02;;;;;;;1.48;0.70;;;17.30;44.50;;;;;;5124240;27;45326;-77
2021/12/10 04:15:29;;;;;;;1.50;0.90;;;17.30;44.40;;;;;;5131135;27;45271;-77
2021/12/10 04:17:58;;;;;;;3.17;0.77;;;17.30;44.40;;;;;;5130326;27;45229;-77
2021/12/10 04:20:29;;;;;;;1.20;0.55;;;17.30;44.50;;;;;;5130425;27;45214;-77
2021/12/10 04:22:58;;;;;;;0.80;0.50;;;17.30;44.70;;;;;;5129494;27;45266;-77
2021/12/10 04:25:25;;;;;;;1.73;0.40;;;17.30;44.40;;;;;;5130869;27;45355;-77
2021/12/10 04:27:55;;;;;;;2.00;0.90;;;17.30;44.40;;;;;;5129309;27;46523;-77
2021/12/10 04:30:23;;;;;;;1.63;0.90;;;17.30;44.40;;;;;;5130475;27;46068;-77
2021/12/10 04:32:49;;;;;;;0.95;0.45;;;17.30;44.30;;;;;;5130231;27;45278;-77
2021/12/10 04:35:18;;;;;;;1.52;0.75;;;17.30;44.40;;;;;;5129492;27;45341;-77
2021/12/10 04:37:49;;;;;;;2.05;0.60;;;17.30;44.40;;;;;;5121324;27;48113;-77
2021/12/10 04:40:18;;;;;;;2.30;0.75;;;17.40;44.50;;;;;;5130470;27;45528;-77
2021/12/10 04:42:46;;;;;;;1.30;0.68;;;17.30;44.40;;;;;;5130656;27;45228;-77
2021/12/10 04:45:14;;;;;;;2.42;0.60;;;17.30;44.30;;;;;;5130493;27;45440;-77
2021/12/10 04:47:41;;;;;;;2.38;0.98;;;17.30;44.50;;;;;;5129859;27;47046;-77
2021/12/10 04:50:10;;;;;;;2.40;0.80;;;17.30;44.30;;;;;;5130092;27;45277;-77
2021/12/10 04:52:37;;;;;;;1.15;0.70;;;17.30;44.60;;;;;;5130481;27;45331;-77
2021/12/10 04:55:08;;;;;;;1.98;0.70;;;17.30;44.30;;;;;;5129145;27;45369;-77
2021/12/10 04:57:35;;;;;;;1.52;0.73;;;17.30;44.40;;;;;;5130156;27;48319;-77
2021/12/10 05:00:03;;;;;;;1.38;0.60;;;17.30;44.30;;;;;;5129272;27;45248;-77
2021/12/10 05:02:33;;;;;;;1.00;0.45;;;17.30;44.20;;;;;;5130069;27;45259;-77
2021/12/10 05:05:00;;;;;;;1.10;0.65;;;17.30;44.20;;;;;;5117690;27;45241;-77
2021/12/10 05:07:30;;;;;;;1.40;0.73;;;17.30;44.40;;;;;;5128512;27;48441;-77
2021/12/10 05:09:57;;;;;;;1.73;0.88;;;17.30;44.40;;;;;;5111710;27;45493;-77
2021/12/10 05:12:25;;;;;;;2.05;0.70;;;17.30;44.30;;;;;;5125617;27;45337;-77
2021/12/10 05:14:58;;;;;;;1.02;0.40;;;17.30;44.20;;;;;;5129285;27;45304;-77
2021/12/10 05:17:27;;;;;;;0.80;0.60;;;17.30;44.20;;;;;;5326715;22;47132;-78
2021/12/10 05:19:55;;;;;;;1.45;0.80;;;17.30;44.30;;;;;;5102344;27;45641;-76
2021/12/10 05:22:22;;;;;;;1.27;0.60;;;17.30;44.30;;;;;;5101174;27;45484;-78
2021/12/10 05:24:49;;;;;;;2.22;0.82;;;17.30;44.50;;;;;;5102423;27;45426;-78
2021/12/10 05:27:16;;;;;;;1.23;0.68;;;17.20;44.30;;;;;;5105817;27;47281;-76
2021/12/10 05:29:44;;;;;;;1.13;0.77;;;17.20;44.40;;;;;;5107025;27;45428;-76
2021/12/10 05:32:16;;;;;;;1.02;0.52;;;17.20;44.30;;;;;;5103107;27;46722;-76
2021/12/10 05:34:43;;;;;;;2.17;0.68;;;17.20;44.20;;;;;;5091511;27;45493;-77
2021/12/10 05:37:10;;;;;;;1.05;0.50;;;17.20;44.20;;;;;;5104856;27;47896;-77
2021/12/10 05:39:37;;;;;;;1.85;0.75;;;17.20;44.40;;;;;;5098863;27;46869;-77
2021/12/10 05:42:05;;;;;;;1.17;0.60;;;17.20;44.00;;;;;;5107807;27;45243;-77
2021/12/10 05:44:32;;;;;;;1.77;0.55;;;17.20;44.20;;;;;;5105413;27;45456;-77
2021/12/10 05:47:01;;;;;;;2.10;0.70;;;17.20;44.60;;;;;;5104553;27;47588;-77
2021/12/10 05:49:28;;;;;;;1.33;0.80;;;17.20;44.60;;;;;;5104763;27;45238;-77
2021/12/10 05:51:55;;;;;;;2.13;0.70;;;17.20;44.40;;;;;;5105208;27;45313;-76
2021/12/10 05:54:22;;;;;;;1.50;0.70;;;17.20;44.40;;;;;;5107372;27;45481;-77
2021/12/10 05:56:49;;;;;;;1.65;0.68;;;17.20;44.30;;;;;;5106433;27;47958;-77
2021/12/10 05:59:17;;;;;;;2.63;0.98;;;17.20;44.30;;;;;;5101283;27;45471;-77
2021/12/10 06:01:44;;;;;;;1.42;0.68;;;17.20;44.00;;;;;;5107438;27;45329;-77
2021/12/10 06:04:13;;;;;;;2.35;0.95;;;17.20;44.00;;;;;;5108141;27;45523;-77
2021/12/10 06:06:40;;;;;;;1.70;0.80;;;17.30;44.10;;;;;;5106724;27;47074;-77
2021/12/10 06:09:09;;;;;;;0.93;0.60;;;17.20;44.00;;;;;;5103071;27;45218;-78
2021/12/10 06:11:37;;;;;;;5.13;1.20;;;17.30;44.00;;;;;;5105433;27;45474;-77
2021/12/10 06:14:05;;;;;;;1.77;0.90;;;17.30;44.20;;;;;;5105380;27;45637;-77
2021/12/10 06:16:31;;;;;;;4.45;1.02;;;17.30;44.00;;;;;;5106820;27;46210;-77
2021/12/10 06:18:59;;;;;;;1.00;0.73;;;17.30;44.20;;;;;;5108313;27;45286;-77
2021/12/10 06:21:28;;;;;;;2.13;0.90;;;17.30;44.00;;;;;;5109922;27;45289;-76
2021/12/10 06:23:55;;;;;;;5.55;0.80;;;17.30;44.10;;;;;;5110672;27;45318;-76
2021/12/10 06:26:22;;;;;;;2.58;0.90;;;17.30;44.40;;;;;;5110551;27;47073;-76
2021/12/10 06:28:49;;;;;;;2.13;1.05;;;17.30;45.80;;;;;;5110577;27;45372;-76
2021/12/10 06:31:19;;;;;;;1.63;0.57;;;17.30;46.90;;;;;;5107055;27;45599;-77
2021/12/10 06:33:46;;;;;;;2.00;0.88;;;17.30;47.40;;;;;;5106238;27;45743;-78
2021/12/10 06:36:14;;;;;;;14.85;1.67;;;17.30;47.40;;;;;;5103400;27;46481;-75
2021/12/10 06:38:44;;;;;;;4.70;1.15;;;17.30;47.80;;;;;;5108626;27;45301;-75
2021/12/10 06:41:13;;;;;;;5.57;0.93;;;17.30;48.80;;;;;;5104986;27;45329;-75
2021/12/10 06:43:41;;;;;;;8.00;1.10;;;17.30;46.60;;;;;;5106123;27;45505;-77
2021/12/10 06:46:08;;;;;;;3.10;0.70;;;17.40;48.00;;;;;;5107970;27;47606;-77
2021/12/10 06:48:36;;;;;;;2.92;0.82;;;17.40;48.00;;;;;;5102469;27;45895;-77
2021/12/10 06:51:09;;;;;;;1.70;0.68;;;17.40;48.10;;;;;;5097788;27;45365;-77
2021/12/10 06:53:37;;;;;;;1.95;0.90;;;17.30;48.20;;;;;;5101845;27;45504;-77
2021/12/10 06:56:06;;;;;;;1.20;0.75;;;17.30;47.50;;;;;;5108309;27;45830;-77
2021/12/10 06:58:34;;;;;;;1.75;0.77;;;17.40;46.60;;;;;;5100798;27;45533;-78
2021/12/10 07:01:05;;;;;;;1.80;0.73;;;17.40;46.40;;;;;;5100179;27;45271;-78
2021/12/10 07:03:32;;;;;;;2.50;0.77;;;17.40;46.30;;;;;;5095997;27;45491;-78
2021/12/10 07:06:00;;;;;;;1.40;0.80;;;17.40;45.30;;;;;;5104248;27;47265;-77
2021/12/10 07:08:30;;;;;;;4.93;0.73;;;17.40;45.10;;;;;;5107593;27;45230;-77
2021/12/10 07:10:58;;;;;;;1.23;0.77;;;17.40;46.10;;;;;;5110157;27;45487;-77
2021/12/10 07:13:28;;;;;;;1.67;0.68;;;17.40;46.40;;;;;;5110424;27;45784;-77
2021/12/10 07:15:55;;;;;;;1.67;0.70;;;17.40;46.80;;;;;;5108929;27;45988;-76
2021/12/10 07:18:23;;;;;;;1.75;0.80;;;17.40;47.00;;;;;;5110605;27;45536;-76
2021/12/10 07:20:52;;;;;;;2.53;0.90;;;17.40;47.00;;;;;;5110298;27;45321;-77
2021/12/10 07:23:21;;;;;;;1.95;0.68;;;17.40;47.10;;;;;;5104571;27;45444;-77
2021/12/10 07:25:48;;;;;;;1.35;0.65;;;17.50;47.30;;;;;;5109446;27;45254;-77
2021/12/10 07:28:15;;;;;;;2.50;0.70;;;17.50;47.30;;;;;;5108614;27;45223;-77
2021/12/10 07:30:44;;;;;;;1.95;0.70;;;17.40;47.30;;;;;;5107903;27;45892;-77
2021/12/10 07:33:11;;;;;;;0.75;0.45;;;17.50;47.50;;;;;;5109876;27;45499;-77
2021/12/10 07:35:39;;;;;;;1.48;0.50;;;17.50;47.40;;;;;;5109852;27;47834;-77
2021/12/10 07:38:06;;;;;;;1.42;0.55;;;17.50;47.50;;;;;;5112237;27;45269;-78
2021/12/10 07:40:35;;;;;;;1.15;0.70;;;17.50;47.50;;;;;;5110658;27;45265;-77
2021/12/10 07:43:03;;;;;;;1.52;0.70;;;17.50;47.50;;;;;;5111165;27;45271;-77
2021/12/10 07:45:30;;;;;;;3.13;1.05;;;17.50;47.40;;;;;;5109683;27;46355;-77
2021/12/10 07:48:00;;;;;;;1.63;0.98;;;17.50;47.60;;;;;;5109561;27;45306;-77
2021/12/10 07:50:34;;;;;;;1.90;0.70;;;17.50;47.60;;;;;;5110463;27;45402;-77
2021/12/10 07:53:02;;;;;;;1.40;0.50;;;17.50;47.70;;;;;;5106439;27;45589;-77
2021/12/10 07:55:33;;;;;;;1.10;0.70;;;17.50;48.00;;;;;;5103289;27;46330;-77
2021/12/10 07:58:03;;;;;;;1.30;0.52;;;17.50;48.30;;;;;;5095164;27;45522;-77
2021/12/10 08:00:32;;;;;;;1.85;0.82;;;17.50;47.60;;;;;;5106732;27;45524;-77
2021/12/10 08:03:01;;;;;;;3.28;1.10;;;17.50;47.60;;;;;;5111158;27;45324;-77
2021/12/10 08:05:28;;;;;;;1.45;0.57;;;17.50;47.60;;;;;;5099371;27;46506;-77
2021/12/10 08:07:56;;;;;;;1.77;0.70;;;17.50;47.70;;;;;;5108451;27;46657;-77
2021/12/10 08:10:24;;;;;;;1.77;0.50;;;17.50;47.70;;;;;;5108917;27;45473;-77
2021/12/10 08:12:51;;;;;;;1.83;0.73;;;17.50;47.50;;;;;;5104942;27;45497;-77
2021/12/10 08:15:18;;;;;;;1.40;0.60;;;17.50;47.60;;;;;;5102778;27;47293;-77
2021/12/10 08:17:46;;;;;;;2.20;0.80;;;17.50;47.60;;;;;;5101891;27;45377;-77
2021/12/10 08:20:19;;;;;;;1.20;0.60;;;17.50;47.60;;;;;;5104443;27;45359;-78
2021/12/10 08:22:45;;;;;;;0.95;0.60;;;17.50;47.80;;;;;;5100390;27;45590;-77
2021/12/10 08:25:13;;;;;;;2.17;0.77;;;17.50;47.80;;;;;;5106074;27;48159;-77
2021/12/10 08:27:40;;;;;;;2.22;0.82;;;17.50;47.80;;;;;;5104806;27;45333;-77
2021/12/10 08:30:09;;;;;;;1.58;0.80;;;17.50;47.60;;;;;;5105274;27;45493;-77
2021/12/10 08:32:38;;;;;;;0.88;0.63;;;17.60;47.70;;;;;;5103797;27;45384;-77
2021/12/10 08:35:07;;;;;;;1.38;0.60;;;17.60;47.70;;;;;;5104563;27;46644;-77
2021/12/10 08:37:36;;;;;;;3.00;0.70;;;17.60;47.50;;;;;;5107046;27;45332;-77
2021/12/10 08:40:06;;;;;;;1.73;0.60;;;17.60;47.40;;;;;;5102100;27;45388;-77
2021/12/10 08:42:34;;;;;;;1.50;0.63;;;17.60;47.40;;;;;;5100111;27;45501;-77
2021/12/10 08:45:01;;;;;;;1.35;0.60;;;17.60;47.40;;;;;;5101358;27;46571;-77
2021/12/10 08:47:27;;;;;;;1.75;0.80;;;17.60;47.30;;;;;;5108532;27;45240;-77
2021/12/10 08:49:54;;;;;;;2.42;0.60;;;17.60;47.40;;;;;;5108501;27;45285;-77
2021/12/10 08:52:21;;;;;;;1.13;0.50;;;17.60;47.30;;;;;;5108884;27;45223;-78
2021/12/10 08:54:50;;;;;;;1.80;0.70;;;17.60;47.40;;;;;;5104452;27;46467;-77
2021/12/10 08:57:17;;;;;;;1.55;0.65;;;17.60;47.30;;;;;;5104276;27;45452;-77
2021/12/10 08:59:44;;;;;;;1.88;0.63;;;17.60;47.40;;;;;;5106479;27;45237;-77
2021/12/10 09:02:14;;;;;;;1.30;0.63;;;17.60;47.40;;;;;;5104537;27;45413;-77
2021/12/10 09:04:41;;;;;;;0.68;0.55;;;17.60;47.50;;;;;;5104705;27;47254;-77
2021/12/10 09:07:11;;;;;;;1.80;0.70;;;17.60;47.40;;;;;;5107854;27;45257;-77
2021/12/10 09:09:41;;;;;;;0.95;0.60;;;17.50;47.40;;;;;;5101848;27;45390;-77
2021/12/10 09:12:14;;;;;;;0.75;0.50;;;17.50;47.30;;;;;;5095791;27;45370;-77
2021/12/10 09:14:46;;;;;;;1.17;0.57;;;17.50;47.30;;;;;;5093539;27;47919;-77
2021/12/10 09:17:16;;;;;;;3.55;0.90;;;17.50;47.40;;;;;;5101228;27;45324;-77
2021/12/10 09:19:44;;;;;;;1.60;0.73;;;17.50;47.50;;;;;;5102491;27;45309;-77
2021/12/10 09:22:11;;;;;;;1.70;0.80;;;17.50;47.40;;;;;;5104570;27;45263;-77
2021/12/10 09:24:40;;;;;;;1.73;0.68;;;17.50;47.20;;;;;;5102605;27;46475;-77
2021/12/10 09:27:10;;;;;;;2.30;0.90;;;17.40;47.20;;;;;;5106484;27;45349;-77
2021/12/10 09:29:41;;;;;;;2.35;0.73;;;17.40;47.30;;;;;;5102910;27;46546;-77
2021/12/10 09:32:13;;;;;;;3.33;0.70;;;17.40;47.40;;;;;;5103059;27;45575;-77
2021/12/10 09:34:40;;;;;;;3.17;1.38;;;17.40;47.70;;;;;;5096670;27;45502;-77
2021/12/10 09:37:08;;;;;;;2.55;0.80;;;17.40;47.80;;;;;;5105339;27;45318;-77
2021/12/10 09:39:36;;;;;;;2.92;0.82;;;17.40;47.60;;;;;;5102482;27;45332;-77
2021/12/10 09:42:05;;;;;;;3.38;1.00;;;17.50;47.70;;;;;;5104879;27;45139;-77
2021/12/10 09:44:33;;;;;;;1.92;0.60;;;17.50;47.60;;;;;;5099009;27;45494;-78
2021/12/10 09:47:01;;;;;;;5.00;1.08;;;17.50;47.50;;;;;;5102222;27;45661;-86
2021/12/10 09:49:30;;;;;;;40.53;2.63;;;17.50;49.20;;;;;;5101379;27;45459;-79
2021/12/10 09:52:01;;;;;;;8.10;1.40;;;17.60;51.10;;;;;;5100557;27;45262;-80
2021/12/10 09:54:33;;;;;;;2.08;0.70;;;17.60;51.80;;;;;;5100516;27;47980;-80
2021/12/10 09:57:04;;;;;;;4.18;0.85;;;17.70;51.30;;;;;;5105530;27;45286;-80
2021/12/10 09:59:33;;;;;;;2.13;0.90;;;17.90;50.70;;;;;;5084488;27;45345;-80
2021/12/10 10:02:02;;;;;;;3.88;0.80;;;18.10;51.00;;;;;;5105632;27;45215;-80
2021/12/10 10:04:34;;;;;;;7.80;0.85;;;18.30;52.50;;;;;;5101579;27;45634;-80
2021/12/10 10:07:05;;;;;;;3.63;0.93;;;18.50;51.70;;;;;;5105066;27;45483;-79
2021/12/10 10:09:34;;;;;;;1.50;0.75;;;18.70;51.80;;;;;;5106848;27;45436;-80
2021/12/10 10:12:05;;;;;;;4.65;0.95;;;18.90;52.20;;;;;;5106871;27;45408;-80
2021/12/10 10:14:34;;;;;;;2.33;0.90;;;19.10;52.20;;;;;;5102378;27;46210;-79
2021/12/10 10:17:01;;;;;;;2.72;1.30;;;19.20;52.50;;;;;;5103683;27;45660;-78
2021/12/10 10:19:29;;;;;;;3.13;1.13;;;19.30;53.50;;;;;;5107682;27;45467;-78
2021/12/10 10:21:59;;;;;;;3.90;1.38;;;19.50;53.70;;;;;;5098905;27;45701;-78
2021/12/10 10:24:29;;;;;;;3.15;1.00;;;19.60;53.60;;;;;;5107326;27;46695;-78
2021/12/10 10:27:00;;;;;;;1.95;1.13;;;19.60;53.80;;;;;;5107681;27;45393;-78
2021/12/10 10:29:32;;;;;;;2.17;1.13;;;19.80;52.80;;;;;;5107213;27;45268;-79
2021/12/10 10:32:08;;;;;;;3.05;1.30;;;19.90;54.10;;;;;;5099748;27;45369;-79
2021/12/10 10:34:37;;;;;;;3.85;1.67;;;19.90;54.10;;;;;;5104466;27;47816;-78
2021/12/10 10:37:04;;;;;;;3.03;1.40;;;20.00;54.20;;;;;;5100353;27;46101;-78
2021/12/10 10:39:34;;;;;;;2.63;1.35;;;20.00;54.20;;;;;;5103424;27;45291;-78
2021/12/10 10:42:03;;;;;;;3.85;1.48;;;20.10;54.30;;;;;;5106034;27;45479;-79
2021/12/10 10:44:30;;;;;;;4.35;1.55;;;20.10;54.30;;;;;;5105697;27;45377;-79
2021/12/10 10:47:01;;;;;;;3.20;1.33;;;20.20;54.40;;;;;;5102120;27;45549;-79
2021/12/10 10:49:35;;;;;;;3.67;1.35;;;20.20;53.80;;;;;;5098352;27;45233;-79
2021/12/10 10:52:16;;;;;;;2.92;1.25;;;20.20;54.40;;;;;;5106398;27;45227;-79
2021/12/10 10:54:43;;;;;;;4.03;1.23;;;20.20;53.30;;;;;;5090940;27;46782;-79
2021/12/10 10:57:15;;;;;;;4.60;1.55;;;20.10;52.90;;;;;;5097858;27;45610;-79
2021/12/10 10:59:42;;;;;;;4.90;1.45;;;20.00;52.50;;;;;;5093900;27;45363;-79
2021/12/10 11:02:11;;;;;;;2.65;1.17;;;19.80;51.80;;;;;;5100436;27;45554;-78
2021/12/10 11:04:40;;;;;;;2.22;1.15;;;19.50;51.20;;;;;;5104439;27;46788;-79
2021/12/10 11:07:10;;;;;;;2.35;1.30;;;19.30;52.00;;;;;;5103096;27;45365;-80
2021/12/10 11:09:44;;;;;;;3.75;1.35;;;19.00;51.80;;;;;;5108010;27;45405;-79
2021/12/10 11:12:16;;;;;;;3.33;1.15;;;18.90;52.40;;;;;;5106617;27;45317;-79
2021/12/10 11:14:46;;;;;;;3.20;1.40;;;18.70;52.50;;;;;;5099478;27;47045;-79
2021/12/10 11:17:17;;;;;;;2.67;1.20;;;18.60;52.30;;;;;;5106875;27;45266;-78
2021/12/10 11:19:51;;;;;;;2.30;1.10;;;18.50;52.70;;;;;;5102012;27;45375;-78
2021/12/10 11:22:18;;;;;;;3.90;1.17;;;18.40;52.60;;;;;;5106716;27;45363;-78
2021/12/10 11:24:48;;;;;;;2.05;1.00;;;18.30;52.50;;;;;;5101961;27;46590;-78
2021/12/10 11:27:23;;;;;;;2.70;1.00;;;18.30;52.50;;;;;;5105672;27;45526;-78
2021/12/10 11:29:52;;;;;;;3.03;1.33;;;18.20;52.40;;;;;;5104155;27;45385;-78
2021/12/10 11:32:30;;;;;;;2.38;1.20;;;18.10;52.30;;;;;;5103262;27;45369;-78
2021/12/10 11:35:06;;;;;;;2.30;1.02;;;18.10;52.30;;;;;;5104882;27;45504;-78
2021/12/10 11:37:51;;;;;;;2.25;1.10;;;18.00;52.20;;;;;;5102785;27;46579;-78
2021/12/10 11:40:44;;;;;;;2.00;1.23;;;18.00;51.80;;;;;;5105980;27;45539;-78
2021/12/10 11:43:32;;;;;;;4.88;2.60;;;18.00;52.20;;;;;;5105232;27;45389;-78
2021/12/10 11:46:27;;;;;;;4.72;2.80;;;18.00;52.20;;;;;;5100076;27;48871;-78
2021/12/10 11:49:06;;;;;;;2.80;1.90;;;18.00;52.30;;;;;;5096413;27;45349;-78
2021/12/10 11:51:36;;;;;;;3.88;1.92;;;18.00;52.20;;;;;;5098164;27;45376;-78
2021/12/10 11:54:08;;;;;;;3.15;1.60;;;18.00;52.20;;;;;;5098956;27;45431;-78
2021/12/10 11:56:37;;;;;;;2.70;1.58;;;18.00;51.80;;;;;;5105204;27;46419;-79
2021/12/10 11:59:08;;;;;;;17.27;2.35;;;17.90;51.80;;;;;;5096519;27;45418;-77
2021/12/10 12:01:47;;;;;;;6.85;1.88;;;18.00;54.20;;;;;;5094566;27;45460;-77
2021/12/10 12:04:22;;;;;;;6.55;1.80;;;18.00;54.30;;;;;;5095434;27;45294;-77
2021/12/10 12:07:16;;;;;;;7.22;1.80;;;18.10;54.20;;;;;;5106589;27;47641;-77
2021/12/10 12:09:45;;;;;;;6.57;1.52;;;18.00;53.60;;;;;;5102759;27;45353;-78
2021/12/10 12:12:14;;;;;;;3.28;1.33;;;18.00;53.60;;;;;;5108752;27;45345;-78
2021/12/10 12:14:50;;;;;;;3.25;1.30;;;18.00;53.30;;;;;;5097560;27;45763;-78
2021/12/10 12:17:34;;;;;;;2.65;1.40;;;17.90;53.50;;;;;;5102294;27;45347;-78
2021/12/10 12:20:06;;;;;;;2.53;1.50;;;17.90;53.10;;;;;;5097271;27;45456;-79
2021/12/10 12:25:27;;;;;;;3.60;1.20;;;17.90;53.20;;;;;;5101723;27;45381;-79
2021/12/10 12:28:06;;;;;;;3.20;1.30;;;17.90;52.80;;;;;;5102302;27;45519;-78
2021/12/10 12:30:33;;;;;;;3.00;1.30;;;17.90;52.20;;;;;;5100806;27;45147;-78
2021/12/10 12:33:01;;;;;;;3.67;1.42;;;17.90;52.20;;;;;;5103640;27;46864;-78
2021/12/10 12:35:33;;;;;;;2.50;1.33;;;17.90;52.20;;;;;;5102464;27;45454;-78
2021/12/10 12:38:14;;;;;;;3.45;1.10;;;17.90;52.20;;;;;;5104746;27;45532;-79
2021/12/10 12:40:43;;;;;;;2.78;1.40;;;17.90;52.20;;;;;;5093051;27;45552;-79
2021/12/10 12:43:10;;;;;;;2.47;1.30;;;17.90;52.20;;;;;;5102100;27;45721;-79
2021/12/10 12:45:42;;;;;;;3.30;1.40;;;17.90;52.20;;;;;;5103600;27;45755;-79
2021/12/10 12:48:11;;;;;;;3.55;1.10;;;17.90;52.20;;;;;;5099014;27;46856;-78
2021/12/10 12:50:42;;;;;;;4.47;1.42;;;17.90;52.20;;;;;;5097048;27;45343;-79
2021/12/10 12:53:12;;;;;;;3.72;1.10;;;17.90;52.20;;;;;;5107959;27;45374;-79
2021/12/10 12:55:49;;;;;;;3.35;1.35;;;17.90;52.20;;;;;;5105819;27;45583;-79
2021/12/10 12:58:22;;;;;;;2.90;1.50;;;17.90;52.20;;;;;;5099683;27;45281;-79
2021/12/10 13:01:01;;;;;;;3.25;1.00;;;17.90;52.20;;;;;;5102100;27;45353;-79
2021/12/10 13:03:34;;;;;;;2.28;0.98;;;17.80;52.00;;;;;;5108601;27;45432;-79
2021/12/10 13:06:11;;;;;;;3.53;1.20;;;17.80;52.00;;;;;;5107276;27;45681;-79